首页
METAR-TAF:

METAR-TAF

机场 :

埃尔多拉多国际机场

波哥大, 哥伦比亚

纬度: 04-43N, 经度: 074-09W, 海拔: 2547米

当前天气观测

该预报发布于22分钟前的04:00 UTC
风速4节,风向东北
温度 12°C
湿度 82%
气压 1028 hPa
能见度10公里或以上
少量云层高于2000英尺
散云层高于8000英尺

METAR: SKBO 230400Z 05004KT 9999 FEW020 SCT080 12/09 A3037

时间: 23:22 (04:22 UTC)

预报

该预报发布于5小时和22分钟前的23:00 UTC
预报有效从23日的 00点(UTC)到 23日的 24点(UTC)
风速4节,风向
能见度10公里或以上
散云层高于2000英尺
多云层高于8000英尺
附近有阵雨
成为
从 23日的 02点(UTC)到 23日的 04点(UTC)
风速2节,风向多变
散云层高于1700英尺, 塔状积云.
几率 40% :
短暂存在
从 23日的 03点(UTC)到 23日的 06点(UTC)
能見度: 7000
多云层高于1500英尺
毛毛雨
短暂存在
从 23日的 09点(UTC)到 23日的 13点(UTC)
能見度: 8000
散云层高于1500英尺
短暂存在
从 23日的 19点(UTC)到 23日的 23点(UTC)
散云层高于1700英尺, 塔状积云.
附近有阵雨

TAF: SKBO 222300Z 2300/2324 35004KT 9999 VCSH SCT020 BKN080 BECMG 2302/2304 VRB02KT SCT017TCU PROB40 TEMPO 2303/2306 7000 DZ BKN015 TEMPO 2309/2313 8000 SCT015 TEMPO 2319/2323 VCSH SCT017TCU TX20/2318Z TN09/2311Z

超过4000个机场的气象观测和天气预报(METAR&TAF报告)。

可查询的气象台以黄色和红色小点在地图上表示。

将鼠标移到小点上方,可查看气象台名称。

然后点击查看天气观测和预报。

如需切换地图:点击带黑十字的绿色按钮放大地图;点击带横线的绿色按钮缩小地图;或者点击绿色箭头查看邻近地区的地图。


METAR-TAF: